createdAt,value
2023-04-02T00:01:00.780Z,16.09
2023-04-02T00:03:27.214Z,16.07
2023-04-02T00:05:53.661Z,16.04
2023-04-02T00:08:20.124Z,16.02
2023-04-02T00:10:46.567Z,15.95
2023-04-02T00:13:12.901Z,15.93
2023-04-02T00:15:39.241Z,15.93
2023-04-02T00:18:05.625Z,15.91
2023-04-02T00:20:32.000Z,15.90
2023-04-02T00:22:58.341Z,15.73
2023-04-02T00:25:24.715Z,15.73
2023-04-02T00:27:51.018Z,15.61
2023-04-02T00:30:17.636Z,15.69
2023-04-02T00:32:44.053Z,15.66
2023-04-02T00:35:10.423Z,15.63
2023-04-02T00:37:36.772Z,15.61
2023-04-02T00:40:03.168Z,15.60
2023-04-02T00:42:29.693Z,15.57
2023-04-02T00:44:56.009Z,15.56
2023-04-02T00:47:22.363Z,15.54
2023-04-02T00:49:48.726Z,15.52
2023-04-02T00:52:15.052Z,15.53
2023-04-02T00:54:41.425Z,15.55
2023-04-02T00:57:07.812Z,15.53
2023-04-02T00:59:34.179Z,15.56
2023-04-02T01:02:00.562Z,15.57
2023-04-02T01:04:26.960Z,15.57
2023-04-02T01:06:53.339Z,15.58
2023-04-02T01:09:19.754Z,15.57
2023-04-02T01:11:46.132Z,15.56
2023-04-02T01:14:12.449Z,15.57
2023-04-02T01:16:39.304Z,15.57
2023-04-02T01:19:05.654Z,15.56
2023-04-02T01:21:32.074Z,15.57
2023-04-02T01:23:58.541Z,15.56
2023-04-02T01:26:24.856Z,15.56
2023-04-02T01:28:51.198Z,15.53
2023-04-02T01:31:17.715Z,15.49
2023-04-02T01:33:44.120Z,15.49
2023-04-02T01:36:10.561Z,15.46
2023-04-02T01:38:37.026Z,15.46
2023-04-02T01:41:03.411Z,15.46
2023-04-02T01:43:29.750Z,15.46
2023-04-02T01:45:56.184Z,15.43
2023-04-02T01:48:22.730Z,15.44
2023-04-02T01:50:49.214Z,15.44
2023-04-02T01:53:15.607Z,15.42
2023-04-02T01:55:42.009Z,15.41
2023-04-02T01:58:08.336Z,15.39
2023-04-02T02:00:35.632Z,15.39
2023-04-02T02:03:02.240Z,15.38
2023-04-02T02:05:29.346Z,15.35
2023-04-02T02:07:56.538Z,15.35
2023-04-02T02:10:22.984Z,15.33
2023-04-02T02:12:49.319Z,15.33
2023-04-02T02:15:15.673Z,15.32
2023-04-02T02:17:42.019Z,15.32
2023-04-02T02:20:08.340Z,15.30
2023-04-02T02:22:34.786Z,15.30
2023-04-02T02:25:01.118Z,15.27
2023-04-02T02:27:27.478Z,15.28
2023-04-02T02:30:02.726Z,15.26
2023-04-02T02:32:29.463Z,15.26
2023-04-02T02:34:56.398Z,15.23
2023-04-02T02:37:23.608Z,15.21
2023-04-02T02:39:50.575Z,15.22
2023-04-02T02:42:16.957Z,15.21
2023-04-02T02:44:43.749Z,15.19
2023-04-02T02:47:10.343Z,15.18
2023-04-02T02:49:36.710Z,15.18
2023-04-02T02:52:04.286Z,15.19
2023-04-02T02:54:37.763Z,15.16
2023-04-02T02:57:04.303Z,15.16
2023-04-02T02:59:30.979Z,15.14
2023-04-02T03:01:57.934Z,15.14
2023-04-02T03:04:24.443Z,15.12
2023-04-02T03:06:53.925Z,15.10
2023-04-02T03:09:22.081Z,15.10
2023-04-02T03:11:48.480Z,15.09
2023-04-02T03:14:18.746Z,15.07
2023-04-02T03:16:45.267Z,15.02
2023-04-02T03:19:12.296Z,14.97
2023-04-02T03:21:38.637Z,14.99
2023-04-02T03:24:04.996Z,14.97
2023-04-02T03:26:31.391Z,14.97
2023-04-02T03:28:58.655Z,14.95
2023-04-02T03:31:25.284Z,14.95
2023-04-02T03:33:52.721Z,14.94
2023-04-02T03:36:19.188Z,14.95
2023-04-02T03:38:45.736Z,14.96
2023-04-02T03:41:13.466Z,14.93
2023-04-02T03:43:39.861Z,14.94
2023-04-02T03:46:07.312Z,14.92
2023-04-02T03:48:33.762Z,14.92
2023-04-02T03:51:00.192Z,14.93
2023-04-02T03:53:26.751Z,14.93
2023-04-02T03:55:53.363Z,14.96
2023-04-02T03:58:19.675Z,14.96
2023-04-02T04:00:46.415Z,14.97
2023-04-02T04:03:12.894Z,14.97
2023-04-02T04:05:39.594Z,14.97
2023-04-02T04:08:05.988Z,14.98
2023-04-02T04:10:32.344Z,14.98
2023-04-02T04:12:58.683Z,14.96
2023-04-02T04:15:25.047Z,14.96
2023-04-02T04:17:51.655Z,14.94
2023-04-02T04:20:20.383Z,14.92
2023-04-02T04:22:46.862Z,14.91
2023-04-02T04:25:18.866Z,14.91
2023-04-02T04:27:45.641Z,14.90
2023-04-02T04:30:12.016Z,14.62
2023-04-02T04:32:39.649Z,14.82
2023-04-02T04:35:12.560Z,14.82
2023-04-02T04:37:39.559Z,14.83
2023-04-02T04:40:09.309Z,14.82
2023-04-02T04:42:35.658Z,14.82
2023-04-02T04:45:04.788Z,14.79
2023-04-02T04:47:31.299Z,14.78
2023-04-02T04:49:59.038Z,14.77
2023-04-02T04:52:25.512Z,14.78
2023-04-02T04:54:51.987Z,14.76
2023-04-02T04:57:23.022Z,14.75
2023-04-02T04:59:49.402Z,14.75
2023-04-02T05:02:15.834Z,14.74
2023-04-02T05:04:43.011Z,14.72
2023-04-02T05:07:13.631Z,14.70
2023-04-02T05:09:43.251Z,14.68
2023-04-02T05:12:13.042Z,14.69
2023-04-02T05:14:39.409Z,14.64
2023-04-02T05:17:06.348Z,14.64
2023-04-02T05:19:32.691Z,14.63
2023-04-02T05:21:59.275Z,14.63
2023-04-02T05:24:25.845Z,14.62
2023-04-02T05:26:53.634Z,14.65
2023-04-02T05:29:19.986Z,14.65
2023-04-02T05:31:47.142Z,14.64
2023-04-02T05:34:13.509Z,14.62
2023-04-02T05:36:40.077Z,14.61
2023-04-02T05:39:06.514Z,14.60
2023-04-02T05:41:42.595Z,14.59
2023-04-02T05:44:08.993Z,14.59
2023-04-02T05:46:35.362Z,14.58
2023-04-02T05:49:01.735Z,14.57
2023-04-02T05:51:28.519Z,14.54
2023-04-02T05:53:55.244Z,14.50
2023-04-02T05:56:21.644Z,14.53
2023-04-02T05:58:50.110Z,14.55
2023-04-02T06:01:24.818Z,14.53
2023-04-02T06:03:52.735Z,14.52
2023-04-02T06:06:19.496Z,14.51
2023-04-02T06:08:45.865Z,14.53
2023-04-02T06:11:12.331Z,14.52
2023-04-02T06:13:40.668Z,14.52
2023-04-02T06:16:07.446Z,14.53
2023-04-02T06:18:33.886Z,14.54
2023-04-02T06:21:00.198Z,14.53
2023-04-02T06:23:27.486Z,14.50
2023-04-02T06:25:55.273Z,14.48
2023-04-02T06:28:22.974Z,14.48
2023-04-02T06:30:51.873Z,14.44
2023-04-02T06:33:19.112Z,14.42
2023-04-02T06:35:46.437Z,14.36
2023-04-02T06:38:15.542Z,14.36
2023-04-02T06:40:41.935Z,14.35
2023-04-02T06:43:13.690Z,14.32
2023-04-02T06:46:12.449Z,14.27
2023-04-02T06:48:54.674Z,14.23
2023-04-02T06:51:21.312Z,14.18
2023-04-02T06:53:48.081Z,14.16
2023-04-02T06:56:16.090Z,14.13
2023-04-02T06:58:42.539Z,14.11
2023-04-02T07:01:09.113Z,14.09
2023-04-02T07:03:41.039Z,14.07
2023-04-02T07:06:20.248Z,14.01
2023-04-02T07:08:48.717Z,13.96
2023-04-02T07:11:16.267Z,13.94
2023-04-02T07:13:43.695Z,13.91
2023-04-02T07:16:10.310Z,13.88
2023-04-02T07:18:36.855Z,13.85
2023-04-02T07:21:05.757Z,13.82
2023-04-02T07:23:32.229Z,13.79
2023-04-02T07:25:58.560Z,13.77
2023-04-02T07:28:24.921Z,13.74
2023-04-02T07:30:51.318Z,13.71
2023-04-02T07:33:17.641Z,13.67
2023-04-02T07:35:44.182Z,13.67
2023-04-02T07:38:10.549Z,13.63
2023-04-02T07:40:36.841Z,13.58
2023-04-02T07:43:03.277Z,13.56
2023-04-02T07:45:29.586Z,13.54
2023-04-02T07:47:56.051Z,13.53
2023-04-02T07:50:22.519Z,13.48
2023-04-02T07:52:48.844Z,13.46
2023-04-02T07:55:15.197Z,13.42
2023-04-02T07:57:42.027Z,13.39
2023-04-02T08:00:09.475Z,13.37
2023-04-02T08:02:38.681Z,13.35
2023-04-02T08:05:05.043Z,13.32
2023-04-02T08:07:31.369Z,13.29
2023-04-02T08:09:57.699Z,13.26
2023-04-02T08:12:24.075Z,13.25
2023-04-02T08:14:50.400Z,13.22
2023-04-02T08:17:16.703Z,13.23
2023-04-02T08:19:54.186Z,13.18
2023-04-02T08:22:21.662Z,13.13
2023-04-02T08:24:48.041Z,13.11
2023-04-02T08:27:14.368Z,13.11
2023-04-02T08:29:40.740Z,13.09
2023-04-02T08:32:07.129Z,13.08
2023-04-02T08:34:33.509Z,13.06
2023-04-02T08:36:59.878Z,13.06
2023-04-02T08:39:26.293Z,13.03
2023-04-02T08:41:52.608Z,13.00
2023-04-02T08:44:18.996Z,12.97
2023-04-02T08:46:45.359Z,12.95
2023-04-02T08:49:11.670Z,12.93
2023-04-02T08:51:38.063Z,12.91
2023-04-02T08:54:04.756Z,12.91
2023-04-02T08:56:31.140Z,12.89
2023-04-02T08:58:57.460Z,12.87
2023-04-02T09:01:23.866Z,12.83
2023-04-02T09:03:50.185Z,12.81
2023-04-02T09:06:16.772Z,12.78
2023-04-02T09:08:43.257Z,12.75
2023-04-02T09:11:09.567Z,12.72
2023-04-02T09:13:35.921Z,12.68
2023-04-02T09:16:02.308Z,12.65
2023-04-02T09:18:28.741Z,12.65
2023-04-02T09:20:55.101Z,12.63
2023-04-02T09:23:21.489Z,12.61
2023-04-02T09:25:57.409Z,12.61
2023-04-02T09:28:29.660Z,12.57
2023-04-02T09:30:55.988Z,12.58
2023-04-02T09:33:22.323Z,12.55
2023-04-02T09:35:48.753Z,12.51
2023-04-02T09:38:15.079Z,12.50
2023-04-02T09:40:41.395Z,12.46
2023-04-02T09:43:07.760Z,12.43
2023-04-02T09:45:34.358Z,12.39
2023-04-02T09:48:00.915Z,12.39
2023-04-02T09:50:27.285Z,12.36
2023-04-02T09:52:53.593Z,12.33
2023-04-02T09:55:19.935Z,12.34
2023-04-02T09:57:46.317Z,12.12
2023-04-02T10:00:25.255Z,12.05
2023-04-02T10:02:57.513Z,12.02
2023-04-02T10:05:39.450Z,12.10
2023-04-02T10:08:06.704Z,12.16
2023-04-02T10:10:33.051Z,12.15
2023-04-02T10:12:59.394Z,12.15
2023-04-02T10:15:25.754Z,12.16
2023-04-02T10:17:52.081Z,12.15
2023-04-02T10:20:18.442Z,12.15
2023-04-02T10:22:44.800Z,12.14
2023-04-02T10:25:11.129Z,12.13
2023-04-02T10:27:37.448Z,12.10
2023-04-02T10:30:03.827Z,12.08
2023-04-02T10:32:30.189Z,12.04
2023-04-02T10:34:56.540Z,12.03
2023-04-02T10:37:22.906Z,12.01
2023-04-02T10:39:49.223Z,12.00
2023-04-02T10:42:15.550Z,11.98
2023-04-02T10:44:41.922Z,11.95
2023-04-02T10:47:08.276Z,11.96
2023-04-02T10:49:35.952Z,11.93
2023-04-02T10:52:02.374Z,11.91
2023-04-02T10:54:28.706Z,11.91
2023-04-02T10:56:55.107Z,11.91
2023-04-02T10:59:21.521Z,11.91
2023-04-02T11:01:47.893Z,11.90
2023-04-02T11:04:14.332Z,11.90
2023-04-02T11:06:40.724Z,11.91
2023-04-02T11:09:07.034Z,11.92
2023-04-02T11:11:33.352Z,11.92
2023-04-02T11:13:59.720Z,11.91
2023-04-02T11:16:26.174Z,11.91
2023-04-02T11:18:52.515Z,11.90
2023-04-02T11:21:18.877Z,11.84
2023-04-02T11:23:45.244Z,11.91
2023-04-02T11:26:11.547Z,11.90
2023-04-02T11:28:37.937Z,11.88
2023-04-02T11:31:04.343Z,11.86
2023-04-02T11:33:38.139Z,11.86
2023-04-02T11:36:05.719Z,11.83
2023-04-02T11:38:32.056Z,11.84
2023-04-02T11:40:58.446Z,11.81
2023-04-02T11:43:24.850Z,11.82
2023-04-02T11:45:53.475Z,11.81
2023-04-02T11:48:20.022Z,11.79
2023-04-02T11:50:46.743Z,11.81
2023-04-02T11:53:13.231Z,11.81
2023-04-02T11:55:39.809Z,11.80
2023-04-02T11:58:06.381Z,11.75
2023-04-02T12:00:32.717Z,11.78
2023-04-02T12:02:59.093Z,11.77
2023-04-02T12:05:25.521Z,11.76
2023-04-02T12:07:51.878Z,11.75
2023-04-02T12:10:18.235Z,11.72
2023-04-02T12:12:44.603Z,11.73
2023-04-02T12:15:10.913Z,11.74
2023-04-02T12:17:37.285Z,11.71
2023-04-02T12:20:05.634Z,11.70
2023-04-02T12:22:32.291Z,11.68
2023-04-02T12:24:58.605Z,11.69
2023-04-02T12:27:24.981Z,11.69
2023-04-02T12:29:51.297Z,11.67
2023-04-02T12:32:17.614Z,11.68
2023-04-02T12:34:43.992Z,11.66
2023-04-02T12:37:10.287Z,11.65
2023-04-02T12:39:36.627Z,11.66
2023-04-02T12:42:03.014Z,11.66
2023-04-02T12:44:29.330Z,11.65
2023-04-02T12:46:55.649Z,11.65
2023-04-02T12:49:22.017Z,11.63
2023-04-02T12:51:48.331Z,11.59
2023-04-02T12:54:14.645Z,11.57
2023-04-02T12:56:41.005Z,11.56
2023-04-02T12:59:07.339Z,11.58
2023-04-02T13:01:33.673Z,11.58
2023-04-02T13:04:00.221Z,11.58
2023-04-02T13:06:26.582Z,11.57
2023-04-02T13:08:52.969Z,11.55
2023-04-02T13:11:19.322Z,11.53
2023-04-02T13:13:45.654Z,11.52
2023-04-02T13:16:12.022Z,11.53
2023-04-02T13:18:38.407Z,11.52
2023-04-02T13:21:04.720Z,11.52
2023-04-02T13:23:31.050Z,11.53
2023-04-02T13:25:57.424Z,11.55
2023-04-02T13:28:23.780Z,11.56
2023-04-02T13:30:50.098Z,11.54
2023-04-02T13:33:16.504Z,11.51
2023-04-02T13:35:42.838Z,11.55
2023-04-02T13:38:09.224Z,11.55
2023-04-02T13:40:35.771Z,11.55
2023-04-02T13:43:02.225Z,11.38
2023-04-02T13:45:28.568Z,11.51
2023-04-02T13:47:55.024Z,11.53
2023-04-02T13:50:21.393Z,11.55
2023-04-02T13:52:47.721Z,11.57
2023-04-02T13:55:14.087Z,11.54
2023-04-02T13:57:40.406Z,11.51
2023-04-02T14:00:06.707Z,11.51
2023-04-02T14:02:33.082Z,11.52
2023-04-02T14:04:59.412Z,11.53
2023-04-02T14:07:25.738Z,11.54
2023-04-02T14:09:52.112Z,11.55
2023-04-02T14:12:18.449Z,11.54
2023-04-02T14:14:44.798Z,11.53
2023-04-02T14:17:11.173Z,11.49
2023-04-02T14:19:37.522Z,11.49
2023-04-02T14:22:03.844Z,11.50
2023-04-02T14:24:30.231Z,11.50
2023-04-02T14:26:56.567Z,11.48
2023-04-02T14:29:22.871Z,11.47
2023-04-02T14:31:49.229Z,11.43
2023-04-02T14:34:15.551Z,11.42
2023-04-02T14:36:41.887Z,11.38
2023-04-02T14:39:08.269Z,11.37
2023-04-02T14:41:34.609Z,11.39
2023-04-02T14:44:00.956Z,11.39
2023-04-02T14:46:27.415Z,11.41
2023-04-02T14:48:53.787Z,11.42
2023-04-02T14:51:20.127Z,11.42
2023-04-02T14:53:46.584Z,11.38
2023-04-02T14:56:12.940Z,11.37
2023-04-02T14:58:39.284Z,11.34
2023-04-02T15:01:05.693Z,11.34
2023-04-02T15:03:32.059Z,11.30
2023-04-02T15:05:58.449Z,11.28
2023-04-02T15:08:24.822Z,11.28
2023-04-02T15:10:51.165Z,11.25
2023-04-02T15:13:17.515Z,11.09
2023-04-02T15:15:43.879Z,11.24
2023-04-02T15:18:10.233Z,11.24
2023-04-02T15:20:36.726Z,11.24
2023-04-02T15:23:03.217Z,11.22
2023-04-02T15:25:29.531Z,11.20
2023-04-02T15:27:55.886Z,11.20
2023-04-02T15:30:22.253Z,11.19
2023-04-02T15:32:48.620Z,11.19
2023-04-02T15:35:15.017Z,11.17
2023-04-02T15:37:41.374Z,11.12
2023-04-02T15:40:07.720Z,11.11
2023-04-02T15:42:34.115Z,11.07
2023-04-02T15:45:00.505Z,11.09
2023-04-02T15:47:26.856Z,11.08
2023-04-02T15:49:53.179Z,11.09
2023-04-02T15:52:19.586Z,11.06
2023-04-02T15:54:45.919Z,11.06
2023-04-02T15:57:12.278Z,11.05
2023-04-02T15:59:38.710Z,10.89
2023-04-02T16:02:05.047Z,10.83
2023-04-02T16:04:31.495Z,10.96
2023-04-02T16:06:58.062Z,10.99
2023-04-02T16:09:24.380Z,10.98
2023-04-02T16:11:50.701Z,11.01
2023-04-02T16:14:17.060Z,10.99
2023-04-02T16:16:43.420Z,10.99
2023-04-02T16:19:16.766Z,10.98
2023-04-02T16:21:43.475Z,10.99
2023-04-02T16:24:09.804Z,10.97
2023-04-02T16:26:36.139Z,10.96
2023-04-02T16:29:02.498Z,10.92
2023-04-02T16:31:29.035Z,10.91
2023-04-02T16:33:55.411Z,10.92
2023-04-02T16:36:21.784Z,10.92
2023-04-02T16:38:48.147Z,10.92
2023-04-02T16:41:14.453Z,10.93
2023-04-02T16:43:40.801Z,10.91
2023-04-02T16:46:07.180Z,10.90
2023-04-02T16:48:33.492Z,10.89
2023-04-02T16:50:59.843Z,10.87
2023-04-02T16:53:26.194Z,10.86
2023-04-02T16:55:52.524Z,10.86
2023-04-02T16:58:18.896Z,10.87
2023-04-02T17:00:45.219Z,10.85
2023-04-02T17:03:11.666Z,10.86
2023-04-02T17:05:38.110Z,10.85
2023-04-02T17:08:04.653Z,10.84
2023-04-02T17:10:31.041Z,10.84
2023-04-02T17:12:57.402Z,10.83
2023-04-02T17:15:27.668Z,10.82
2023-04-02T17:17:55.056Z,10.81
2023-04-02T17:20:21.449Z,10.80
2023-04-02T17:22:47.825Z,10.78
2023-04-02T17:25:14.124Z,10.77
2023-04-02T17:27:40.491Z,10.73
2023-04-02T17:30:06.808Z,10.74
2023-04-02T17:32:33.240Z,10.76
2023-04-02T17:34:59.748Z,10.76
2023-04-02T17:37:26.084Z,10.73
2023-04-02T17:39:52.423Z,10.70
2023-04-02T17:42:18.803Z,10.66
2023-04-02T17:44:45.117Z,10.63
2023-04-02T17:47:11.558Z,10.63
2023-04-02T17:49:37.967Z,10.62
2023-04-02T17:52:04.339Z,10.59
2023-04-02T17:54:30.693Z,10.59
2023-04-02T17:56:57.088Z,10.59
2023-04-02T17:59:23.431Z,10.55
2023-04-02T18:01:49.769Z,10.53
2023-04-02T18:04:16.141Z,10.48
2023-04-02T18:06:42.477Z,10.46
2023-04-02T18:09:08.806Z,10.46
2023-04-02T18:11:35.210Z,10.48
2023-04-02T18:14:01.543Z,10.48
2023-04-02T18:16:27.903Z,10.48
2023-04-02T18:18:54.277Z,10.44
2023-04-02T18:21:20.629Z,10.45
2023-04-02T18:23:46.952Z,10.45
2023-04-02T18:26:13.343Z,10.43
2023-04-02T18:28:39.733Z,10.41
2023-04-02T18:31:06.111Z,10.39
2023-04-02T18:33:32.546Z,10.36
2023-04-02T18:35:58.950Z,10.36
2023-04-02T18:38:25.295Z,10.35
2023-04-02T18:40:51.667Z,10.36
2023-04-02T18:43:18.005Z,10.33
2023-04-02T18:45:44.334Z,10.33
2023-04-02T18:48:10.705Z,10.33
2023-04-02T18:50:37.186Z,10.34
2023-04-02T18:53:03.658Z,10.33
2023-04-02T18:55:30.007Z,10.34
2023-04-02T18:57:56.322Z,10.34
2023-04-02T19:00:22.648Z,10.34
2023-04-02T19:02:49.194Z,10.34
2023-04-02T19:05:15.587Z,10.36
2023-04-02T19:07:41.922Z,10.37
2023-04-02T19:10:08.297Z,10.37
2023-04-02T19:12:34.608Z,10.38
2023-04-02T19:15:00.912Z,10.34
2023-04-02T19:17:27.341Z,10.33
2023-04-02T19:19:53.687Z,10.28
2023-04-02T19:22:20.026Z,10.32
2023-04-02T19:24:46.378Z,10.33
2023-04-02T19:27:12.690Z,10.32
2023-04-02T19:29:39.028Z,10.30
2023-04-02T19:32:05.391Z,10.29
2023-04-02T19:34:31.715Z,10.29
2023-04-02T19:36:58.021Z,10.29
2023-04-02T19:39:24.410Z,10.28
2023-04-02T19:41:50.700Z,10.28
2023-04-02T19:44:17.005Z,10.25
2023-04-02T19:46:43.403Z,10.24
2023-04-02T19:49:09.762Z,10.20
2023-04-02T19:51:36.080Z,10.19
2023-04-02T19:54:02.480Z,10.17
2023-04-02T19:56:28.820Z,10.18
2023-04-02T19:58:56.661Z,10.18
2023-04-02T20:01:23.167Z,10.17
2023-04-02T20:03:49.550Z,10.15
2023-04-02T20:06:15.934Z,10.15
2023-04-02T20:08:42.299Z,10.16
2023-04-02T20:11:08.609Z,10.15
2023-04-02T20:13:34.932Z,10.15
2023-04-02T20:16:01.299Z,10.12
2023-04-02T20:18:27.624Z,10.10
2023-04-02T20:20:53.959Z,10.07
2023-04-02T20:23:20.343Z,10.04
2023-04-02T20:25:46.704Z,10.03
2023-04-02T20:28:13.045Z,10.05
2023-04-02T20:30:39.568Z,10.05
2023-04-02T20:33:06.005Z,10.02
2023-04-02T20:35:32.463Z,10.02
2023-04-02T20:37:58.840Z,9.97
2023-04-02T20:40:25.155Z,9.96
2023-04-02T20:42:51.494Z,9.99
2023-04-02T20:45:17.875Z,9.82
2023-04-02T20:47:44.206Z,9.86
2023-04-02T20:50:10.551Z,9.90
2023-04-02T20:52:36.924Z,9.87
2023-04-02T20:55:03.241Z,9.87
2023-04-02T20:57:29.641Z,9.86
2023-04-02T20:59:56.047Z,9.86
2023-04-02T21:02:22.357Z,9.86
2023-04-02T21:04:48.745Z,9.85
2023-04-02T21:07:15.167Z,9.82
2023-04-02T21:09:41.484Z,9.73
2023-04-02T21:12:07.810Z,9.77
2023-04-02T21:14:34.175Z,9.77
2023-04-02T21:17:00.494Z,9.77
2023-04-02T21:19:26.793Z,9.77
2023-04-02T21:21:53.156Z,9.77
2023-04-02T21:24:19.454Z,9.77
2023-04-02T21:26:45.770Z,9.76
2023-04-02T21:29:12.178Z,9.77
2023-04-02T21:31:38.567Z,9.79
2023-04-02T21:34:04.938Z,9.79
2023-04-02T21:36:31.313Z,9.79
2023-04-02T21:38:57.665Z,9.79
2023-04-02T21:41:24.023Z,9.80
2023-04-02T21:43:50.387Z,9.78
2023-04-02T21:46:16.773Z,9.79
2023-04-02T21:48:43.139Z,9.79
2023-04-02T21:51:09.514Z,9.78
2023-04-02T21:53:35.872Z,9.78
2023-04-02T21:56:02.200Z,9.77
2023-04-02T21:58:28.545Z,9.76
2023-04-02T22:00:54.926Z,9.77
2023-04-02T22:03:31.083Z,9.76
2023-04-02T22:05:58.206Z,9.73
2023-04-02T22:08:24.533Z,9.69
2023-04-02T22:10:50.878Z,9.71
2023-04-02T22:13:17.308Z,9.69
2023-04-02T22:15:43.604Z,9.66
2023-04-02T22:18:09.913Z,9.65
2023-04-02T22:20:36.409Z,9.64
2023-04-02T22:23:02.843Z,9.64
2023-04-02T22:25:29.158Z,9.63
2023-04-02T22:27:55.526Z,9.63
2023-04-02T22:30:21.857Z,9.64
2023-04-02T22:32:48.202Z,9.63
2023-04-02T22:35:14.564Z,9.62
2023-04-02T22:37:40.898Z,9.62
2023-04-02T22:40:07.214Z,9.60
2023-04-02T22:42:33.676Z,9.56
2023-04-02T22:44:59.990Z,9.54
2023-04-02T22:47:26.333Z,9.54
2023-04-02T22:49:52.699Z,9.52
2023-04-02T22:52:19.065Z,9.52
2023-04-02T22:54:45.370Z,9.47
2023-04-02T22:57:11.785Z,9.46
2023-04-02T22:59:38.120Z,9.43
2023-04-02T23:02:04.469Z,9.41
2023-04-02T23:04:30.842Z,9.40
2023-04-02T23:06:57.165Z,9.39
2023-04-02T23:09:23.495Z,9.35
2023-04-02T23:11:49.864Z,9.36
2023-04-02T23:14:16.192Z,9.36
2023-04-02T23:16:42.498Z,9.36
2023-04-02T23:19:08.883Z,9.36
2023-04-02T23:21:35.226Z,9.35
2023-04-02T23:24:01.543Z,9.32
2023-04-02T23:26:27.922Z,9.29
2023-04-02T23:28:54.248Z,9.28
2023-04-02T23:31:20.614Z,9.29
2023-04-02T23:33:47.022Z,9.27
2023-04-02T23:36:13.395Z,9.26
2023-04-02T23:38:39.788Z,9.24
2023-04-02T23:41:06.200Z,9.23
2023-04-02T23:43:32.514Z,9.21
2023-04-02T23:45:58.883Z,9.20
2023-04-02T23:48:25.268Z,9.18
2023-04-02T23:50:51.602Z,9.14
2023-04-02T23:53:17.985Z,9.13
2023-04-02T23:55:44.345Z,9.11
2023-04-02T23:58:10.647Z,9.10
